sensor_id;sensor_type;location;lat;lon;timestamp;P1;durP1;ratioP1;P2;durP2;ratioP2
18520;SDS011;9390;51.244;6.982;2023-06-22T00:01:09;12.98;;;5.28;;
18520;SDS011;9390;51.244;6.982;2023-06-22T00:03:40;9.75;;;4.63;;
18520;SDS011;9390;51.244;6.982;2023-06-22T00:06:13;9.73;;;3.70;;
18520;SDS011;9390;51.244;6.982;2023-06-22T00:08:45;9.98;;;3.60;;
18520;SDS011;9390;51.244;6.982;2023-06-22T00:11:16;12.98;;;3.30;;
18520;SDS011;9390;51.244;6.982;2023-06-22T00:13:47;7.88;;;3.72;;
18520;SDS011;9390;51.244;6.982;2023-06-22T00:16:21;8.27;;;3.10;;
18520;SDS011;9390;51.244;6.982;2023-06-22T00:18:52;8.00;;;3.22;;
18520;SDS011;9390;51.244;6.982;2023-06-22T00:21:25;7.13;;;3.13;;
18520;SDS011;9390;51.244;6.982;2023-06-22T00:23:56;5.78;;;2.83;;
18520;SDS011;9390;51.244;6.982;2023-06-22T00:26:27;7.65;;;3.15;;
18520;SDS011;9390;51.244;6.982;2023-06-22T00:28:59;7.18;;;3.38;;
18520;SDS011;9390;51.244;6.982;2023-06-22T00:31:30;7.18;;;3.10;;
18520;SDS011;9390;51.244;6.982;2023-06-22T00:34:02;8.60;;;4.07;;
18520;SDS011;9390;51.244;6.982;2023-06-22T00:36:34;7.22;;;3.60;;
18520;SDS011;9390;51.244;6.982;2023-06-22T00:41:37;11.65;;;4.07;;
18520;SDS011;9390;51.244;6.982;2023-06-22T00:44:08;12.85;;;5.50;;
18520;SDS011;9390;51.244;6.982;2023-06-22T00:46:40;11.80;;;5.20;;
18520;SDS011;9390;51.244;6.982;2023-06-22T00:49:11;12.35;;;5.70;;
18520;SDS011;9390;51.244;6.982;2023-06-22T00:51:44;14.07;;;5.45;;
18520;SDS011;9390;51.244;6.982;2023-06-22T00:54:17;15.82;;;7.10;;
18520;SDS011;9390;51.244;6.982;2023-06-22T00:56:54;19.35;;;6.25;;
18520;SDS011;9390;51.244;6.982;2023-06-22T00:59:27;18.17;;;8.27;;
18520;SDS011;9390;51.244;6.982;2023-06-22T01:01:58;15.32;;;7.43;;
18520;SDS011;9390;51.244;6.982;2023-06-22T01:04:34;15.77;;;8.10;;
18520;SDS011;9390;51.244;6.982;2023-06-22T01:07:19;19.65;;;9.63;;
18520;SDS011;9390;51.244;6.982;2023-06-22T01:09:56;19.65;;;9.80;;
18520;SDS011;9390;51.244;6.982;2023-06-22T01:12:31;23.10;;;10.88;;
18520;SDS011;9390;51.244;6.982;2023-06-22T01:15:08;24.90;;;11.82;;
18520;SDS011;9390;51.244;6.982;2023-06-22T01:17:42;28.13;;;11.90;;
18520;SDS011;9390;51.244;6.982;2023-06-22T01:20:14;27.38;;;12.20;;
18520;SDS011;9390;51.244;6.982;2023-06-22T01:22:51;25.57;;;10.40;;
18520;SDS011;9390;51.244;6.982;2023-06-22T01:25:31;25.90;;;12.02;;
18520;SDS011;9390;51.244;6.982;2023-06-22T01:28:10;22.67;;;9.80;;
18520;SDS011;9390;51.244;6.982;2023-06-22T01:30:51;27.13;;;11.77;;
18520;SDS011;9390;51.244;6.982;2023-06-22T01:33:34;23.45;;;11.85;;
18520;SDS011;9390;51.244;6.982;2023-06-22T01:36:06;19.15;;;9.70;;
18520;SDS011;9390;51.244;6.982;2023-06-22T01:38:38;23.30;;;9.18;;
18520;SDS011;9390;51.244;6.982;2023-06-22T01:41:10;23.73;;;12.33;;
18520;SDS011;9390;51.244;6.982;2023-06-22T01:43:42;20.77;;;10.48;;
18520;SDS011;9390;51.244;6.982;2023-06-22T01:46:15;19.92;;;9.07;;
18520;SDS011;9390;51.244;6.982;2023-06-22T01:48:49;16.05;;;7.15;;
18520;SDS011;9390;51.244;6.982;2023-06-22T01:51:20;14.80;;;8.07;;
18520;SDS011;9390;51.244;6.982;2023-06-22T01:53:52;14.05;;;7.88;;
18520;SDS011;9390;51.244;6.982;2023-06-22T01:56:23;18.13;;;9.05;;
18520;SDS011;9390;51.244;6.982;2023-06-22T01:59:02;20.02;;;9.50;;
18520;SDS011;9390;51.244;6.982;2023-06-22T02:01:39;15.30;;;8.05;;
18520;SDS011;9390;51.244;6.982;2023-06-22T02:04:16;14.57;;;7.25;;
18520;SDS011;9390;51.244;6.982;2023-06-22T02:06:51;13.38;;;7.65;;
18520;SDS011;9390;51.244;6.982;2023-06-22T02:09:28;15.10;;;8.50;;
18520;SDS011;9390;51.244;6.982;2023-06-22T02:12:00;16.67;;;8.68;;
18520;SDS011;9390;51.244;6.982;2023-06-22T02:14:34;15.82;;;8.95;;
18520;SDS011;9390;51.244;6.982;2023-06-22T02:17:07;15.90;;;9.82;;
18520;SDS011;9390;51.244;6.982;2023-06-22T02:19:40;14.77;;;8.43;;
18520;SDS011;9390;51.244;6.982;2023-06-22T02:22:12;22.52;;;9.02;;
18520;SDS011;9390;51.244;6.982;2023-06-22T02:24:43;14.55;;;8.43;;
18520;SDS011;9390;51.244;6.982;2023-06-22T02:27:15;19.40;;;10.52;;
18520;SDS011;9390;51.244;6.982;2023-06-22T02:29:46;23.08;;;10.23;;
18520;SDS011;9390;51.244;6.982;2023-06-22T02:32:19;16.17;;;8.95;;
18520;SDS011;9390;51.244;6.982;2023-06-22T02:34:50;16.08;;;9.02;;
18520;SDS011;9390;51.244;6.982;2023-06-22T02:37:23;13.10;;;7.68;;
18520;SDS011;9390;51.244;6.982;2023-06-22T02:39:55;13.20;;;7.85;;
18520;SDS011;9390;51.244;6.982;2023-06-22T02:42:26;15.52;;;7.18;;
18520;SDS011;9390;51.244;6.982;2023-06-22T02:44:57;16.05;;;7.68;;
18520;SDS011;9390;51.244;6.982;2023-06-22T02:47:30;12.75;;;7.57;;
18520;SDS011;9390;51.244;6.982;2023-06-22T02:50:02;19.65;;;8.63;;
18520;SDS011;9390;51.244;6.982;2023-06-22T02:52:33;15.82;;;8.30;;
18520;SDS011;9390;51.244;6.982;2023-06-22T02:55:05;19.77;;;9.50;;
18520;SDS011;9390;51.244;6.982;2023-06-22T02:57:38;26.33;;;14.45;;
18520;SDS011;9390;51.244;6.982;2023-06-22T03:00:13;19.98;;;10.30;;
18520;SDS011;9390;51.244;6.982;2023-06-22T03:02:49;20.08;;;10.40;;
18520;SDS011;9390;51.244;6.982;2023-06-22T03:05:20;22.30;;;11.65;;
18520;SDS011;9390;51.244;6.982;2023-06-22T03:07:52;23.60;;;11.45;;
18520;SDS011;9390;51.244;6.982;2023-06-22T03:10:23;18.85;;;10.45;;
18520;SDS011;9390;51.244;6.982;2023-06-22T03:12:54;22.40;;;11.32;;
18520;SDS011;9390;51.244;6.982;2023-06-22T03:15:26;19.85;;;11.20;;
18520;SDS011;9390;51.244;6.982;2023-06-22T03:18:00;23.85;;;11.82;;
18520;SDS011;9390;51.244;6.982;2023-06-22T03:20:32;18.90;;;10.30;;
18520;SDS011;9390;51.244;6.982;2023-06-22T03:23:03;23.15;;;10.60;;
18520;SDS011;9390;51.244;6.982;2023-06-22T03:25:35;21.70;;;11.52;;
18520;SDS011;9390;51.244;6.982;2023-06-22T03:28:06;17.88;;;10.38;;
18520;SDS011;9390;51.244;6.982;2023-06-22T03:30:37;19.75;;;9.48;;
18520;SDS011;9390;51.244;6.982;2023-06-22T03:33:10;19.55;;;10.40;;
18520;SDS011;9390;51.244;6.982;2023-06-22T03:35:41;16.50;;;9.20;;
18520;SDS011;9390;51.244;6.982;2023-06-22T03:38:13;18.52;;;9.00;;
18520;SDS011;9390;51.244;6.982;2023-06-22T03:40:44;19.52;;;8.73;;
18520;SDS011;9390;51.244;6.982;2023-06-22T03:43:16;19.73;;;8.45;;
18520;SDS011;9390;51.244;6.982;2023-06-22T03:45:47;13.93;;;7.47;;
18520;SDS011;9390;51.244;6.982;2023-06-22T03:48:20;14.23;;;7.93;;
18520;SDS011;9390;51.244;6.982;2023-06-22T03:50:51;13.13;;;7.95;;
18520;SDS011;9390;51.244;6.982;2023-06-22T03:53:23;15.00;;;8.07;;
18520;SDS011;9390;51.244;6.982;2023-06-22T03:55:54;14.63;;;7.43;;
18520;SDS011;9390;51.244;6.982;2023-06-22T03:58:25;14.43;;;8.85;;
18520;SDS011;9390;51.244;6.982;2023-06-22T04:00:59;13.52;;;7.72;;
18520;SDS011;9390;51.244;6.982;2023-06-22T04:03:32;15.52;;;8.00;;
18520;SDS011;9390;51.244;6.982;2023-06-22T04:06:03;12.65;;;7.93;;
18520;SDS011;9390;51.244;6.982;2023-06-22T04:08:35;16.00;;;8.18;;
18520;SDS011;9390;51.244;6.982;2023-06-22T04:11:06;16.77;;;7.85;;
18520;SDS011;9390;51.244;6.982;2023-06-22T04:13:37;14.90;;;7.95;;
18520;SDS011;9390;51.244;6.982;2023-06-22T04:16:09;14.70;;;7.78;;
18520;SDS011;9390;51.244;6.982;2023-06-22T04:18:42;15.68;;;7.50;;
18520;SDS011;9390;51.244;6.982;2023-06-22T04:21:13;15.13;;;7.50;;
18520;SDS011;9390;51.244;6.982;2023-06-22T04:23:45;13.80;;;7.53;;
18520;SDS011;9390;51.244;6.982;2023-06-22T04:26:17;13.77;;;7.53;;
18520;SDS011;9390;51.244;6.982;2023-06-22T04:28:50;15.88;;;7.85;;
18520;SDS011;9390;51.244;6.982;2023-06-22T04:31:25;14.73;;;8.15;;
18520;SDS011;9390;51.244;6.982;2023-06-22T04:34:04;15.75;;;8.55;;
18520;SDS011;9390;51.244;6.982;2023-06-22T04:36:37;14.23;;;8.55;;
18520;SDS011;9390;51.244;6.982;2023-06-22T04:39:10;15.77;;;7.95;;
18520;SDS011;9390;51.244;6.982;2023-06-22T04:41:42;15.38;;;8.60;;
18520;SDS011;9390;51.244;6.982;2023-06-22T04:44:13;14.32;;;8.13;;
18520;SDS011;9390;51.244;6.982;2023-06-22T04:46:54;14.05;;;7.95;;
18520;SDS011;9390;51.244;6.982;2023-06-22T04:49:31;13.43;;;8.68;;
18520;SDS011;9390;51.244;6.982;2023-06-22T04:52:05;15.10;;;8.25;;
18520;SDS011;9390;51.244;6.982;2023-06-22T04:54:38;14.25;;;8.32;;
18520;SDS011;9390;51.244;6.982;2023-06-22T04:57:17;14.48;;;8.73;;
18520;SDS011;9390;51.244;6.982;2023-06-22T04:59:48;15.23;;;8.38;;
18520;SDS011;9390;51.244;6.982;2023-06-22T05:02:20;18.40;;;9.57;;
18520;SDS011;9390;51.244;6.982;2023-06-22T05:04:54;18.15;;;8.77;;
18520;SDS011;9390;51.244;6.982;2023-06-22T05:07:26;21.52;;;9.32;;
18520;SDS011;9390;51.244;6.982;2023-06-22T05:09:58;14.02;;;8.05;;
18520;SDS011;9390;51.244;6.982;2023-06-22T05:12:29;17.45;;;9.40;;
18520;SDS011;9390;51.244;6.982;2023-06-22T05:15:01;16.35;;;8.50;;
18520;SDS011;9390;51.244;6.982;2023-06-22T05:17:32;19.83;;;8.00;;
18520;SDS011;9390;51.244;6.982;2023-06-22T05:20:06;17.88;;;9.60;;
18520;SDS011;9390;51.244;6.982;2023-06-22T05:22:38;19.25;;;9.32;;
18520;SDS011;9390;51.244;6.982;2023-06-22T05:25:10;17.33;;;8.93;;
18520;SDS011;9390;51.244;6.982;2023-06-22T05:27:42;17.13;;;9.10;;
18520;SDS011;9390;51.244;6.982;2023-06-22T05:30:14;16.98;;;9.15;;
18520;SDS011;9390;51.244;6.982;2023-06-22T05:32:46;19.38;;;9.90;;
18520;SDS011;9390;51.244;6.982;2023-06-22T05:35:19;24.30;;;11.90;;
18520;SDS011;9390;51.244;6.982;2023-06-22T05:37:50;32.05;;;13.60;;
18520;SDS011;9390;51.244;6.982;2023-06-22T05:40:22;41.17;;;16.00;;
18520;SDS011;9390;51.244;6.982;2023-06-22T05:42:53;32.10;;;12.90;;
18520;SDS011;9390;51.244;6.982;2023-06-22T05:45:24;22.63;;;11.95;;
18520;SDS011;9390;51.244;6.982;2023-06-22T05:47:56;32.80;;;13.43;;
18520;SDS011;9390;51.244;6.982;2023-06-22T05:50:28;29.90;;;12.93;;
18520;SDS011;9390;51.244;6.982;2023-06-22T05:53:00;31.55;;;15.07;;
18520;SDS011;9390;51.244;6.982;2023-06-22T05:55:31;41.17;;;18.80;;
18520;SDS011;9390;51.244;6.982;2023-06-22T05:58:02;33.28;;;16.63;;
18520;SDS011;9390;51.244;6.982;2023-06-22T06:00:34;27.90;;;15.02;;
18520;SDS011;9390;51.244;6.982;2023-06-22T06:03:07;33.95;;;15.02;;
18520;SDS011;9390;51.244;6.982;2023-06-22T06:05:40;30.58;;;13.13;;
18520;SDS011;9390;51.244;6.982;2023-06-22T06:08:11;28.15;;;11.32;;
18520;SDS011;9390;51.244;6.982;2023-06-22T06:10:43;30.85;;;13.60;;
18520;SDS011;9390;51.244;6.982;2023-06-22T06:13:14;27.45;;;11.32;;
18520;SDS011;9390;51.244;6.982;2023-06-22T06:15:45;22.70;;;11.40;;
18520;SDS011;9390;51.244;6.982;2023-06-22T06:18:17;25.35;;;11.50;;
18520;SDS011;9390;51.244;6.982;2023-06-22T06:20:50;27.58;;;11.95;;
18520;SDS011;9390;51.244;6.982;2023-06-22T06:23:21;31.63;;;14.32;;
18520;SDS011;9390;51.244;6.982;2023-06-22T06:25:53;19.90;;;11.50;;
18520;SDS011;9390;51.244;6.982;2023-06-22T06:28:24;22.17;;;11.20;;
18520;SDS011;9390;51.244;6.982;2023-06-22T06:30:55;20.45;;;9.50;;
18520;SDS011;9390;51.244;6.982;2023-06-22T06:33:27;15.18;;;9.52;;
18520;SDS011;9390;51.244;6.982;2023-06-22T06:36:00;16.40;;;9.40;;
18520;SDS011;9390;51.244;6.982;2023-06-22T06:38:33;16.63;;;9.77;;
18520;SDS011;9390;51.244;6.982;2023-06-22T06:41:04;16.65;;;9.32;;
18520;SDS011;9390;51.244;6.982;2023-06-22T06:43:36;16.27;;;9.77;;
18520;SDS011;9390;51.244;6.982;2023-06-22T06:46:07;16.67;;;10.15;;
18520;SDS011;9390;51.244;6.982;2023-06-22T06:48:38;16.42;;;10.05;;
18520;SDS011;9390;51.244;6.982;2023-06-22T06:51:12;16.45;;;9.77;;
18520;SDS011;9390;51.244;6.982;2023-06-22T06:53:44;21.38;;;11.75;;
18520;SDS011;9390;51.244;6.982;2023-06-22T06:56:15;22.90;;;11.57;;
18520;SDS011;9390;51.244;6.982;2023-06-22T06:58:49;19.77;;;13.63;;
18520;SDS011;9390;51.244;6.982;2023-06-22T07:01:21;24.02;;;14.75;;
18520;SDS011;9390;51.244;6.982;2023-06-22T07:03:53;25.20;;;15.73;;
18520;SDS011;9390;51.244;6.982;2023-06-22T07:06:26;34.22;;;19.40;;
18520;SDS011;9390;51.244;6.982;2023-06-22T07:09:02;38.55;;;20.60;;
18520;SDS011;9390;51.244;6.982;2023-06-22T07:11:33;36.15;;;20.52;;
18520;SDS011;9390;51.244;6.982;2023-06-22T07:14:06;37.78;;;21.05;;
18520;SDS011;9390;51.244;6.982;2023-06-22T07:16:37;40.72;;;21.13;;
18520;SDS011;9390;51.244;6.982;2023-06-22T07:19:10;43.25;;;22.83;;
18520;SDS011;9390;51.244;6.982;2023-06-22T07:21:43;43.63;;;23.58;;
18520;SDS011;9390;51.244;6.982;2023-06-22T07:24:15;41.47;;;25.23;;
18520;SDS011;9390;51.244;6.982;2023-06-22T07:26:46;31.33;;;20.27;;
18520;SDS011;9390;51.244;6.982;2023-06-22T07:29:18;39.88;;;23.98;;
18520;SDS011;9390;51.244;6.982;2023-06-22T07:31:50;41.53;;;24.83;;
18520;SDS011;9390;51.244;6.982;2023-06-22T07:34:22;52.67;;;28.97;;
18520;SDS011;9390;51.244;6.982;2023-06-22T07:36:55;49.38;;;28.63;;
18520;SDS011;9390;51.244;6.982;2023-06-22T07:39:26;51.47;;;30.05;;
18520;SDS011;9390;51.244;6.982;2023-06-22T07:41:58;42.88;;;26.25;;
18520;SDS011;9390;51.244;6.982;2023-06-22T07:44:29;51.30;;;28.48;;
18520;SDS011;9390;51.244;6.982;2023-06-22T07:47:01;46.22;;;27.83;;
18520;SDS011;9390;51.244;6.982;2023-06-22T07:49:32;46.85;;;27.50;;
18520;SDS011;9390;51.244;6.982;2023-06-22T07:52:05;47.03;;;27.48;;
18520;SDS011;9390;51.244;6.982;2023-06-22T07:54:37;43.53;;;26.90;;
18520;SDS011;9390;51.244;6.982;2023-06-22T07:57:08;43.70;;;26.42;;
18520;SDS011;9390;51.244;6.982;2023-06-22T07:59:39;37.63;;;25.00;;
18520;SDS011;9390;51.244;6.982;2023-06-22T08:02:11;43.15;;;26.35;;
18520;SDS011;9390;51.244;6.982;2023-06-22T08:04:42;42.22;;;23.00;;
18520;SDS011;9390;51.244;6.982;2023-06-22T08:07:16;36.03;;;22.03;;
18520;SDS011;9390;51.244;6.982;2023-06-22T08:09:49;36.67;;;20.52;;
18520;SDS011;9390;51.244;6.982;2023-06-22T08:12:21;30.40;;;18.67;;
18520;SDS011;9390;51.244;6.982;2023-06-22T08:14:52;29.15;;;17.73;;
18520;SDS011;9390;51.244;6.982;2023-06-22T08:17:23;27.95;;;17.38;;
18520;SDS011;9390;51.244;6.982;2023-06-22T08:19:55;26.15;;;17.17;;
18520;SDS011;9390;51.244;6.982;2023-06-22T08:22:28;29.73;;;17.85;;
18520;SDS011;9390;51.244;6.982;2023-06-22T08:25:00;24.30;;;16.55;;
18520;SDS011;9390;51.244;6.982;2023-06-22T08:27:32;27.40;;;17.40;;
18520;SDS011;9390;51.244;6.982;2023-06-22T08:30:04;23.48;;;15.10;;
18520;SDS011;9390;51.244;6.982;2023-06-22T08:32:36;23.23;;;16.00;;
18520;SDS011;9390;51.244;6.982;2023-06-22T08:35:08;24.42;;;17.15;;
18520;SDS011;9390;51.244;6.982;2023-06-22T08:37:40;26.53;;;18.00;;
18520;SDS011;9390;51.244;6.982;2023-06-22T08:40:12;26.15;;;17.60;;
18520;SDS011;9390;51.244;6.982;2023-06-22T08:42:43;26.33;;;17.83;;
18520;SDS011;9390;51.244;6.982;2023-06-22T08:45:15;24.60;;;17.08;;
18520;SDS011;9390;51.244;6.982;2023-06-22T08:47:46;22.48;;;15.85;;
18520;SDS011;9390;51.244;6.982;2023-06-22T08:50:17;22.20;;;14.98;;
18520;SDS011;9390;51.244;6.982;2023-06-22T08:52:50;19.17;;;13.38;;
18520;SDS011;9390;51.244;6.982;2023-06-22T08:57:53;20.52;;;13.75;;
18520;SDS011;9390;51.244;6.982;2023-06-22T09:00:24;18.43;;;13.27;;
18520;SDS011;9390;51.244;6.982;2023-06-22T09:02:57;19.25;;;11.57;;
18520;SDS011;9390;51.244;6.982;2023-06-22T09:05:29;17.80;;;11.83;;
18520;SDS011;9390;51.244;6.982;2023-06-22T09:08:01;17.45;;;11.10;;
18520;SDS011;9390;51.244;6.982;2023-06-22T09:10:33;18.10;;;11.55;;
18520;SDS011;9390;51.244;6.982;2023-06-22T09:13:04;16.85;;;10.98;;
18520;SDS011;9390;51.244;6.982;2023-06-22T09:15:35;19.15;;;10.70;;
18520;SDS011;9390;51.244;6.982;2023-06-22T09:18:09;16.88;;;10.40;;
18520;SDS011;9390;51.244;6.982;2023-06-22T09:20:41;16.42;;;10.23;;
18520;SDS011;9390;51.244;6.982;2023-06-22T09:23:14;17.08;;;9.73;;
18520;SDS011;9390;51.244;6.982;2023-06-22T09:28:17;15.70;;;9.38;;
18520;SDS011;9390;51.244;6.982;2023-06-22T09:30:49;15.00;;;8.73;;
18520;SDS011;9390;51.244;6.982;2023-06-22T09:33:20;15.30;;;9.43;;
18520;SDS011;9390;51.244;6.982;2023-06-22T09:35:52;16.90;;;9.45;;
18520;SDS011;9390;51.244;6.982;2023-06-22T09:38:24;16.05;;;9.43;;
18520;SDS011;9390;51.244;6.982;2023-06-22T09:43:27;16.40;;;9.60;;
18520;SDS011;9390;51.244;6.982;2023-06-22T09:45:58;17.05;;;9.18;;
18520;SDS011;9390;51.244;6.982;2023-06-22T09:48:30;15.43;;;9.35;;
18520;SDS011;9390;51.244;6.982;2023-06-22T09:51:01;16.63;;;9.07;;
18520;SDS011;9390;51.244;6.982;2023-06-22T09:53:37;14.48;;;9.25;;
18520;SDS011;9390;51.244;6.982;2023-06-22T09:56:09;16.00;;;10.07;;
18520;SDS011;9390;51.244;6.982;2023-06-22T09:58:45;15.48;;;9.40;;
18520;SDS011;9390;51.244;6.982;2023-06-22T10:03:48;22.80;;;11.25;;
18520;SDS011;9390;51.244;6.982;2023-06-22T10:06:20;24.27;;;13.25;;
18520;SDS011;9390;51.244;6.982;2023-06-22T10:08:52;20.92;;;10.57;;
18520;SDS011;9390;51.244;6.982;2023-06-22T10:11:24;17.70;;;9.70;;
18520;SDS011;9390;51.244;6.982;2023-06-22T10:13:59;20.40;;;9.82;;
18520;SDS011;9390;51.244;6.982;2023-06-22T10:16:30;16.42;;;9.75;;
18520;SDS011;9390;51.244;6.982;2023-06-22T10:19:02;17.80;;;10.90;;
18520;SDS011;9390;51.244;6.982;2023-06-22T10:21:33;23.88;;;12.20;;
18520;SDS011;9390;51.244;6.982;2023-06-22T10:24:06;21.30;;;12.68;;
18520;SDS011;9390;51.244;6.982;2023-06-22T10:26:38;18.08;;;9.57;;
18520;SDS011;9390;51.244;6.982;2023-06-22T10:29:10;26.23;;;13.13;;
18520;SDS011;9390;51.244;6.982;2023-06-22T10:31:41;23.05;;;12.77;;
18520;SDS011;9390;51.244;6.982;2023-06-22T10:34:12;23.40;;;13.55;;
18520;SDS011;9390;51.244;6.982;2023-06-22T10:36:44;23.73;;;13.52;;
18520;SDS011;9390;51.244;6.982;2023-06-22T10:39:19;20.08;;;11.18;;
18520;SDS011;9390;51.244;6.982;2023-06-22T10:44:22;20.52;;;11.30;;
18520;SDS011;9390;51.244;6.982;2023-06-22T10:46:53;18.85;;;11.57;;
18520;SDS011;9390;51.244;6.982;2023-06-22T10:49:25;19.73;;;11.90;;
18520;SDS011;9390;51.244;6.982;2023-06-22T10:51:56;17.77;;;10.50;;
18520;SDS011;9390;51.244;6.982;2023-06-22T10:54:29;19.75;;;12.52;;
18520;SDS011;9390;51.244;6.982;2023-06-22T10:59:31;23.30;;;13.63;;
18520;SDS011;9390;51.244;6.982;2023-06-22T11:02:03;22.05;;;14.30;;
18520;SDS011;9390;51.244;6.982;2023-06-22T11:04:34;23.35;;;14.30;;
18520;SDS011;9390;51.244;6.982;2023-06-22T11:07:06;30.98;;;17.10;;
18520;SDS011;9390;51.244;6.982;2023-06-22T11:09:38;27.73;;;19.08;;
18520;SDS011;9390;51.244;6.982;2023-06-22T11:12:10;32.70;;;21.05;;
18520;SDS011;9390;51.244;6.982;2023-06-22T11:14:41;30.38;;;19.80;;
18520;SDS011;9390;51.244;6.982;2023-06-22T11:17:13;29.45;;;20.65;;
18520;SDS011;9390;51.244;6.982;2023-06-22T11:19:44;34.45;;;22.08;;
18520;SDS011;9390;51.244;6.982;2023-06-22T11:22:16;31.08;;;22.27;;
18520;SDS011;9390;51.244;6.982;2023-06-22T11:24:48;36.30;;;23.45;;
18520;SDS011;9390;51.244;6.982;2023-06-22T11:27:20;41.42;;;25.42;;
18520;SDS011;9390;51.244;6.982;2023-06-22T11:29:51;34.65;;;24.20;;
18520;SDS011;9390;51.244;6.982;2023-06-22T11:32:23;37.10;;;24.70;;
18520;SDS011;9390;51.244;6.982;2023-06-22T11:34:54;43.63;;;26.38;;
18520;SDS011;9390;51.244;6.982;2023-06-22T11:37:26;40.22;;;25.67;;
18520;SDS011;9390;51.244;6.982;2023-06-22T11:39:58;42.45;;;25.67;;
18520;SDS011;9390;51.244;6.982;2023-06-22T11:45:01;45.90;;;27.15;;
18520;SDS011;9390;51.244;6.982;2023-06-22T11:47:34;49.40;;;28.08;;
18520;SDS011;9390;51.244;6.982;2023-06-22T11:50:06;46.78;;;28.60;;
18520;SDS011;9390;51.244;6.982;2023-06-22T11:52:38;48.75;;;29.73;;
18520;SDS011;9390;51.244;6.982;2023-06-22T11:55:11;48.25;;;29.52;;
18520;SDS011;9390;51.244;6.982;2023-06-22T11:57:52;50.65;;;29.83;;
18520;SDS011;9390;51.244;6.982;2023-06-22T12:00:24;57.72;;;29.83;;
18520;SDS011;9390;51.244;6.982;2023-06-22T12:02:55;49.88;;;29.95;;
18520;SDS011;9390;51.244;6.982;2023-06-22T12:05:27;49.60;;;31.00;;
18520;SDS011;9390;51.244;6.982;2023-06-22T12:07:58;50.95;;;30.67;;
18520;SDS011;9390;51.244;6.982;2023-06-22T12:10:31;51.63;;;30.42;;
18520;SDS011;9390;51.244;6.982;2023-06-22T12:13:02;54.42;;;32.83;;
18520;SDS011;9390;51.244;6.982;2023-06-22T12:15:33;65.20;;;34.10;;
18520;SDS011;9390;51.244;6.982;2023-06-22T12:18:05;62.45;;;36.75;;
18520;SDS011;9390;51.244;6.982;2023-06-22T12:20:36;51.40;;;29.92;;
18520;SDS011;9390;51.244;6.982;2023-06-22T12:23:07;49.08;;;29.38;;
18520;SDS011;9390;51.244;6.982;2023-06-22T12:25:40;44.17;;;27.83;;
18520;SDS011;9390;51.244;6.982;2023-06-22T12:28:11;44.85;;;27.75;;
18520;SDS011;9390;51.244;6.982;2023-06-22T12:30:43;55.50;;;29.70;;
18520;SDS011;9390;51.244;6.982;2023-06-22T12:33:14;61.65;;;34.17;;
18520;SDS011;9390;51.244;6.982;2023-06-22T12:35:46;58.25;;;33.08;;
18520;SDS011;9390;51.244;6.982;2023-06-22T12:38:18;64.25;;;34.65;;
18520;SDS011;9390;51.244;6.982;2023-06-22T12:40:51;59.50;;;33.70;;
18520;SDS011;9390;51.244;6.982;2023-06-22T12:43:23;65.10;;;34.75;;
18520;SDS011;9390;51.244;6.982;2023-06-22T12:45:54;63.30;;;34.28;;
18520;SDS011;9390;51.244;6.982;2023-06-22T12:48:25;46.35;;;29.33;;
18520;SDS011;9390;51.244;6.982;2023-06-22T12:50:58;45.50;;;28.38;;
18520;SDS011;9390;51.244;6.982;2023-06-22T12:53:35;46.67;;;29.23;;
18520;SDS011;9390;51.244;6.982;2023-06-22T12:56:08;43.28;;;27.48;;
18520;SDS011;9390;51.244;6.982;2023-06-22T12:58:39;48.03;;;29.13;;
18520;SDS011;9390;51.244;6.982;2023-06-22T13:01:10;45.60;;;28.90;;
18520;SDS011;9390;51.244;6.982;2023-06-22T13:03:42;44.05;;;29.88;;
18520;SDS011;9390;51.244;6.982;2023-06-22T13:06:13;37.70;;;24.05;;
18520;SDS011;9390;51.244;6.982;2023-06-22T13:08:45;36.63;;;24.00;;
18520;SDS011;9390;51.244;6.982;2023-06-22T13:11:17;32.17;;;22.85;;
18520;SDS011;9390;51.244;6.982;2023-06-22T13:13:49;35.70;;;21.45;;
18520;SDS011;9390;51.244;6.982;2023-06-22T13:16:20;36.42;;;23.70;;
18520;SDS011;9390;51.244;6.982;2023-06-22T13:18:51;34.38;;;22.80;;
18520;SDS011;9390;51.244;6.982;2023-06-22T13:21:23;39.40;;;21.60;;
18520;SDS011;9390;51.244;6.982;2023-06-22T13:23:54;38.83;;;22.52;;
18520;SDS011;9390;51.244;6.982;2023-06-22T13:29:56;39.63;;;23.48;;
18520;SDS011;9390;51.244;6.982;2023-06-22T13:32:27;30.83;;;18.70;;
18520;SDS011;9390;51.244;6.982;2023-06-22T13:34:59;32.17;;;19.75;;
18520;SDS011;9390;51.244;6.982;2023-06-22T13:37:30;27.55;;;18.27;;
18520;SDS011;9390;51.244;6.982;2023-06-22T13:40:01;27.45;;;17.48;;
18520;SDS011;9390;51.244;6.982;2023-06-22T13:42:35;26.95;;;18.67;;
18520;SDS011;9390;51.244;6.982;2023-06-22T13:45:08;28.63;;;16.92;;
18520;SDS011;9390;51.244;6.982;2023-06-22T13:47:40;26.40;;;16.88;;
18520;SDS011;9390;51.244;6.982;2023-06-22T13:50:11;23.80;;;15.20;;
18520;SDS011;9390;51.244;6.982;2023-06-22T13:52:43;32.23;;;18.80;;
18520;SDS011;9390;51.244;6.982;2023-06-22T13:55:15;30.40;;;18.08;;
18520;SDS011;9390;51.244;6.982;2023-06-22T13:57:46;31.55;;;17.15;;
18520;SDS011;9390;51.244;6.982;2023-06-22T14:00:19;23.20;;;14.27;;
18520;SDS011;9390;51.244;6.982;2023-06-22T14:02:50;27.80;;;16.25;;
18520;SDS011;9390;51.244;6.982;2023-06-22T14:05:22;39.83;;;21.25;;
18520;SDS011;9390;51.244;6.982;2023-06-22T14:07:53;35.08;;;16.83;;
18520;SDS011;9390;51.244;6.982;2023-06-22T14:10:25;36.40;;;20.08;;
18520;SDS011;9390;51.244;6.982;2023-06-22T14:12:56;37.25;;;18.55;;
18520;SDS011;9390;51.244;6.982;2023-06-22T14:15:29;21.20;;;14.80;;
18520;SDS011;9390;51.244;6.982;2023-06-22T14:18:00;28.52;;;16.42;;
18520;SDS011;9390;51.244;6.982;2023-06-22T14:20:31;30.55;;;18.70;;
18520;SDS011;9390;51.244;6.982;2023-06-22T14:23:03;38.13;;;23.15;;
18520;SDS011;9390;51.244;6.982;2023-06-22T14:25:34;28.73;;;16.25;;
18520;SDS011;9390;51.244;6.982;2023-06-22T14:28:05;26.58;;;15.43;;
18520;SDS011;9390;51.244;6.982;2023-06-22T14:30:38;36.08;;;18.23;;
18520;SDS011;9390;51.244;6.982;2023-06-22T14:33:09;31.55;;;17.48;;
18520;SDS011;9390;51.244;6.982;2023-06-22T14:35:42;33.83;;;19.02;;
18520;SDS011;9390;51.244;6.982;2023-06-22T14:38:13;34.95;;;20.90;;
18520;SDS011;9390;51.244;6.982;2023-06-22T14:40:45;23.55;;;14.88;;
18520;SDS011;9390;51.244;6.982;2023-06-22T14:43:16;25.73;;;15.35;;
18520;SDS011;9390;51.244;6.982;2023-06-22T14:45:49;24.48;;;15.18;;
18520;SDS011;9390;51.244;6.982;2023-06-22T14:48:20;24.83;;;13.80;;
18520;SDS011;9390;51.244;6.982;2023-06-22T14:50:52;20.43;;;13.73;;
18520;SDS011;9390;51.244;6.982;2023-06-22T14:53:24;23.75;;;13.88;;
18520;SDS011;9390;51.244;6.982;2023-06-22T14:55:56;19.70;;;12.65;;
18520;SDS011;9390;51.244;6.982;2023-06-22T14:58:27;18.92;;;12.90;;
18520;SDS011;9390;51.244;6.982;2023-06-22T15:01:01;19.23;;;12.43;;
18520;SDS011;9390;51.244;6.982;2023-06-22T15:03:33;19.33;;;12.55;;
18520;SDS011;9390;51.244;6.982;2023-06-22T15:06:05;20.42;;;13.60;;
18520;SDS011;9390;51.244;6.982;2023-06-22T15:08:37;20.45;;;12.85;;
18520;SDS011;9390;51.244;6.982;2023-06-22T15:11:09;22.03;;;13.73;;
18520;SDS011;9390;51.244;6.982;2023-06-22T15:13:41;21.65;;;13.90;;
18520;SDS011;9390;51.244;6.982;2023-06-22T15:16:14;34.73;;;18.97;;
18520;SDS011;9390;51.244;6.982;2023-06-22T15:18:45;27.52;;;15.80;;
18520;SDS011;9390;51.244;6.982;2023-06-22T15:21:18;30.50;;;17.90;;
18520;SDS011;9390;51.244;6.982;2023-06-22T15:23:49;32.80;;;17.00;;
18520;SDS011;9390;51.244;6.982;2023-06-22T15:26:21;35.35;;;17.83;;
18520;SDS011;9390;51.244;6.982;2023-06-22T15:28:52;19.95;;;13.43;;
18520;SDS011;9390;51.244;6.982;2023-06-22T15:31:27;19.88;;;13.52;;
18520;SDS011;9390;51.244;6.982;2023-06-22T15:33:58;24.65;;;14.88;;